Terminal Aerodrome Forecast
Issued by NWS

Home | Current Version | Previous Version | Text Only | Print | Product List | Glossary Off
Versions: 1 2 3 4 5 6 7 8 9 10 11 12 13 14 15 16 17

000
FTUS43 KMPX 291500 AAA
TAFRWF
TAF AMD
KRWF 291515Z 2915/3012 21008KT 6SM BR VCTS SCT008 BKN015CB OVC035
      TEMPO 2915/2916 +SHRA BKN035
     FM291700 22006KT P6SM SCT015 BKN025
     FM291800 VRB03KT P6SM VCTS SCT025CB BKN035
     FM292100 VRB02KT P6SM SCT020 BKN050
     FM300400 32003KT 6SM BR SCT007 OVC013
     FM300800 32005KT 2SM BR OVC004=

USA.gov is the U.S. government's official web portal to all federal, state and local government web resources and services.